Iron Springs, Arizona
Current Conditions -  °F | °C
As of 1:53 PM on Saturday 25 Oct 2014 (Local Time) from KPRC Reporting Station
Scattered Clouds Scattered Clouds  
Wind Chill: 78°   Ceiling: Unl
Heat Index: 78°   Visibility: 10mi
Dew Point: 45°   Wind: 13mph
Humidity: 31%   Direction: 210°SSW
Pressure: 30.21"   Gusts: NA
Location:  34.58°N, 112.57°W
Report Text: KPRC 252053Z 21011KT 10SM FEW070 SCT090 26/07 A3021 RMK AO2 SLP162 T02560072 58015
Loading
Personal Weather Stations






























Interactive Weather Map
Tropical Storm Tracking
New forecast layout! Learn more

10-Day Weather Forecast

Advertisements
Track Severe Weather on mobile